createdAt,value
2023-01-22T00:01:09.296Z,5.53
2023-01-22T00:03:41.020Z,4.13
2023-01-22T00:06:09.463Z,6.70
2023-01-22T00:08:37.000Z,6.05
2023-01-22T00:11:04.587Z,4.18
2023-01-22T00:13:31.606Z,6.63
2023-01-22T00:15:59.959Z,5.38
2023-01-22T00:18:27.218Z,2.85
2023-01-22T00:20:55.372Z,6.50
2023-01-22T00:23:23.379Z,4.38
2023-01-22T00:25:50.978Z,4.10
2023-01-22T00:28:17.743Z,3.72
2023-01-22T00:30:44.534Z,5.47
2023-01-22T00:33:11.626Z,3.83
2023-01-22T00:35:38.790Z,5.80
2023-01-22T00:38:06.259Z,4.57
2023-01-22T00:40:32.998Z,7.28
2023-01-22T00:42:59.793Z,3.17
2023-01-22T00:45:26.503Z,5.38
2023-01-22T00:47:53.293Z,6.90
2023-01-22T00:50:20.198Z,3.55
2023-01-22T00:52:47.238Z,5.97
2023-01-22T00:55:13.978Z,4.07
2023-01-22T00:57:40.719Z,5.88
2023-01-22T01:00:09.073Z,3.80
2023-01-22T01:02:58.980Z,5.43
2023-01-22T01:05:26.448Z,9.15
2023-01-22T01:07:53.264Z,3.40
2023-01-22T01:10:20.712Z,2.55
2023-01-22T01:12:47.640Z,5.32
2023-01-22T01:15:14.372Z,3.90
2023-01-22T01:17:41.127Z,6.10
2023-01-22T01:20:08.760Z,3.80
2023-01-22T01:22:35.647Z,2.17
2023-01-22T01:25:02.474Z,5.18
2023-01-22T01:27:31.771Z,4.05
2023-01-22T01:29:59.282Z,3.88
2023-01-22T01:32:26.145Z,7.43
2023-01-22T01:34:52.918Z,2.60
2023-01-22T01:37:19.740Z,3.72
2023-01-22T01:39:48.029Z,5.10
2023-01-22T01:42:14.824Z,6.95
2023-01-22T01:44:43.154Z,5.60
2023-01-22T01:47:34.739Z,3.95
2023-01-22T01:50:02.051Z,3.80
2023-01-22T01:52:28.808Z,5.90
2023-01-22T01:54:58.023Z,4.25
2023-01-22T01:57:30.639Z,5.13
2023-01-22T02:02:25.079Z,2.88
2023-01-22T02:04:53.758Z,4.47
2023-01-22T02:07:20.774Z,3.70
2023-01-22T02:09:47.687Z,3.72
2023-01-22T02:12:14.552Z,6.22
2023-01-22T02:14:45.996Z,7.45
2023-01-22T02:17:21.707Z,6.00
2023-01-22T02:19:48.781Z,5.50
2023-01-22T02:22:22.758Z,7.95
2023-01-22T02:24:50.257Z,8.88
2023-01-22T02:27:17.035Z,4.75
2023-01-22T02:29:43.839Z,5.80
2023-01-22T02:32:10.731Z,6.05
2023-01-22T02:34:37.676Z,5.05
2023-01-22T02:37:04.876Z,9.32
2023-01-22T02:39:31.784Z,8.48
2023-01-22T02:41:58.865Z,5.05
2023-01-22T02:44:25.699Z,3.85
2023-01-22T02:46:52.454Z,4.05
2023-01-22T02:49:19.200Z,4.80
2023-01-22T02:51:46.006Z,5.40
2023-01-22T02:54:12.747Z,4.85
2023-01-22T02:56:39.564Z,9.18
2023-01-22T02:59:06.393Z,5.70
2023-01-22T03:01:33.321Z,5.03
2023-01-22T03:04:11.012Z,6.80
2023-01-22T03:06:44.062Z,5.82
2023-01-22T03:09:13.401Z,4.35
2023-01-22T03:11:42.359Z,6.95
2023-01-22T03:14:27.953Z,7.25
2023-01-22T03:17:13.739Z,8.75
2023-01-22T03:19:59.312Z,15.35
2023-01-22T03:22:26.129Z,4.93
2023-01-22T03:24:53.692Z,6.03
2023-01-22T03:27:23.733Z,7.15
2023-01-22T03:29:50.950Z,8.73
2023-01-22T03:32:18.448Z,6.38
2023-01-22T03:34:45.415Z,5.43
2023-01-22T03:37:15.341Z,9.00
2023-01-22T03:39:42.432Z,4.40
2023-01-22T03:42:09.355Z,5.22
2023-01-22T03:44:36.126Z,8.20
2023-01-22T03:47:03.076Z,8.27
2023-01-22T03:49:29.894Z,8.73
2023-01-22T03:51:57.219Z,6.70
2023-01-22T03:54:23.967Z,6.97
2023-01-22T03:56:50.685Z,6.68
2023-01-22T03:59:17.440Z,6.60
2023-01-22T04:01:44.432Z,5.88
2023-01-22T04:04:11.220Z,6.30
2023-01-22T04:06:37.929Z,9.25
2023-01-22T04:09:04.703Z,6.50
2023-01-22T04:11:31.489Z,9.88
2023-01-22T04:13:58.248Z,4.63
2023-01-22T04:16:25.060Z,8.32
2023-01-22T04:18:51.822Z,7.68
2023-01-22T04:21:18.562Z,5.95
2023-01-22T04:23:45.396Z,8.18
2023-01-22T04:26:12.272Z,8.90
2023-01-22T04:28:39.018Z,7.10
2023-01-22T04:31:06.240Z,8.25
2023-01-22T04:33:33.035Z,6.43
2023-01-22T04:35:59.826Z,9.43
2023-01-22T04:38:26.591Z,8.88
2023-01-22T04:40:53.323Z,8.18
2023-01-22T04:43:20.249Z,5.25
2023-01-22T04:45:46.977Z,10.43
2023-01-22T04:48:14.149Z,7.65
2023-01-22T04:50:40.919Z,11.40
2023-01-22T04:53:07.683Z,5.28
2023-01-22T04:55:34.609Z,6.78
2023-01-22T04:58:02.467Z,6.70
2023-01-22T05:00:31.081Z,6.60
2023-01-22T05:03:00.359Z,6.63
2023-01-22T05:05:28.203Z,7.28
2023-01-22T05:07:55.216Z,6.65
2023-01-22T05:10:22.697Z,8.68
2023-01-22T05:12:50.540Z,7.70
2023-01-22T05:15:24.481Z,10.98
2023-01-22T05:17:53.169Z,8.38
2023-01-22T05:20:21.227Z,8.93
2023-01-22T05:22:48.164Z,7.88
2023-01-22T05:25:15.005Z,10.57
2023-01-22T05:27:41.816Z,8.68
2023-01-22T05:30:10.213Z,7.97
2023-01-22T05:32:37.227Z,5.70
2023-01-22T05:35:06.077Z,6.70
2023-01-22T05:37:33.056Z,13.35
2023-01-22T05:39:59.836Z,7.85
2023-01-22T05:42:26.618Z,10.65
2023-01-22T05:44:53.379Z,8.90
2023-01-22T05:47:20.260Z,7.78
2023-01-22T05:49:46.986Z,9.57
2023-01-22T05:52:13.760Z,8.00
2023-01-22T05:54:40.519Z,8.00
2023-01-22T05:57:07.962Z,8.45
2023-01-22T05:59:34.795Z,7.65
2023-01-22T06:02:02.020Z,10.30
2023-01-22T06:04:29.439Z,13.35
2023-01-22T06:06:56.213Z,10.20
2023-01-22T06:09:23.515Z,7.03
2023-01-22T06:11:50.348Z,5.22
2023-01-22T06:14:17.137Z,6.50
2023-01-22T06:16:43.965Z,6.38
2023-01-22T06:19:10.983Z,5.80
2023-01-22T06:21:37.679Z,6.18
2023-01-22T06:24:04.712Z,5.97
2023-01-22T06:26:31.555Z,5.72
2023-01-22T06:28:58.318Z,6.85
2023-01-22T06:31:25.392Z,10.10
2023-01-22T06:33:54.701Z,5.25
2023-01-22T06:36:21.515Z,4.28
2023-01-22T06:38:48.474Z,6.85
2023-01-22T06:41:15.254Z,6.00
2023-01-22T06:43:42.031Z,9.70
2023-01-22T06:46:08.925Z,11.73
2023-01-22T06:48:35.780Z,7.10
2023-01-22T06:51:02.625Z,7.05
2023-01-22T06:53:29.515Z,12.98
2023-01-22T06:55:59.733Z,5.97
2023-01-22T06:58:26.506Z,7.50
2023-01-22T07:00:53.266Z,8.30
2023-01-22T07:03:20.089Z,6.35
2023-01-22T07:05:46.937Z,9.88
2023-01-22T07:08:15.702Z,7.35
2023-01-22T07:10:42.713Z,7.60
2023-01-22T07:13:10.390Z,9.20
2023-01-22T07:15:37.189Z,7.60
2023-01-22T07:18:04.187Z,9.55
2023-01-22T07:20:31.234Z,6.68
2023-01-22T07:23:00.169Z,8.18
2023-01-22T07:25:28.081Z,5.40
2023-01-22T07:28:03.408Z,7.70
2023-01-22T07:30:30.464Z,6.25
2023-01-22T07:33:02.049Z,11.20
2023-01-22T07:35:29.729Z,7.30
2023-01-22T07:37:59.245Z,4.85
2023-01-22T07:40:26.821Z,8.40
2023-01-22T07:42:54.839Z,8.60
2023-01-22T07:45:24.627Z,6.28
2023-01-22T07:47:56.493Z,6.95
2023-01-22T07:50:30.324Z,6.38
2023-01-22T07:52:57.583Z,6.63
2023-01-22T07:55:24.460Z,4.85
2023-01-22T07:57:59.853Z,6.47
2023-01-22T08:00:27.008Z,9.07
2023-01-22T08:02:53.828Z,5.80
2023-01-22T08:05:21.004Z,14.75
2023-01-22T08:07:47.777Z,7.35
2023-01-22T08:10:15.364Z,4.30
2023-01-22T08:12:46.117Z,6.97
2023-01-22T08:15:13.968Z,8.07
2023-01-22T08:17:41.020Z,9.05
2023-01-22T08:20:09.929Z,9.40
2023-01-22T08:22:36.803Z,9.35
2023-01-22T08:25:03.710Z,8.77
2023-01-22T08:27:30.548Z,5.28
2023-01-22T08:29:57.377Z,12.63
2023-01-22T08:32:24.446Z,9.35
2023-01-22T08:34:54.294Z,5.13
2023-01-22T08:37:24.452Z,12.00
2023-01-22T08:39:51.216Z,8.68
2023-01-22T08:42:18.053Z,9.45
2023-01-22T08:44:44.819Z,10.10
2023-01-22T08:47:11.681Z,10.02
2023-01-22T08:49:38.497Z,13.73
2023-01-22T08:52:05.635Z,12.32
2023-01-22T08:54:32.492Z,8.52
2023-01-22T08:56:59.270Z,12.15
2023-01-22T08:59:26.071Z,4.82
2023-01-22T09:01:53.087Z,10.02
2023-01-22T09:04:20.072Z,6.70
2023-01-22T09:06:46.824Z,11.43
2023-01-22T09:09:13.719Z,9.00
2023-01-22T09:11:40.942Z,6.72
2023-01-22T09:14:09.851Z,6.47
2023-01-22T09:16:37.374Z,12.68
2023-01-22T09:19:05.170Z,8.15
2023-01-22T09:21:33.931Z,7.40
2023-01-22T09:24:01.039Z,7.05
2023-01-22T09:26:27.878Z,6.60
2023-01-22T09:28:54.633Z,11.25
2023-01-22T09:31:21.626Z,5.43
2023-01-22T09:33:48.398Z,6.68
2023-01-22T09:36:16.950Z,7.05
2023-01-22T09:38:44.517Z,9.20
2023-01-22T09:41:16.201Z,8.38
2023-01-22T09:44:10.695Z,7.50
2023-01-22T09:46:44.502Z,7.30
2023-01-22T09:49:20.444Z,8.32
2023-01-22T09:51:54.367Z,6.53
2023-01-22T09:54:21.531Z,9.57
2023-01-22T09:56:52.883Z,7.13
2023-01-22T09:59:47.151Z,6.82
2023-01-22T10:02:32.050Z,7.50
2023-01-22T10:05:26.245Z,7.38
2023-01-22T10:08:05.088Z,6.07
2023-01-22T10:10:33.479Z,10.55
2023-01-22T10:13:23.744Z,5.60
2023-01-22T10:15:54.796Z,6.60
2023-01-22T10:18:27.377Z,5.68
2023-01-22T10:20:55.817Z,12.15
2023-01-22T10:23:25.799Z,8.68
2023-01-22T10:26:15.231Z,7.07
2023-01-22T10:28:49.187Z,6.88
2023-01-22T10:31:33.700Z,6.72
2023-01-22T10:34:11.765Z,4.75
2023-01-22T10:36:38.533Z,4.05
2023-01-22T10:39:10.874Z,5.72
2023-01-22T10:41:38.487Z,4.28
2023-01-22T10:44:25.993Z,4.55
2023-01-22T10:46:55.209Z,5.50
2023-01-22T10:49:25.727Z,5.63
2023-01-22T10:51:56.333Z,5.10
2023-01-22T10:54:35.244Z,6.57
2023-01-22T10:57:40.677Z,11.43
2023-01-22T11:00:16.343Z,5.88
2023-01-22T11:02:48.916Z,3.30
2023-01-22T11:05:22.197Z,4.53
2023-01-22T11:07:54.124Z,5.55
2023-01-22T11:10:38.234Z,5.63
2023-01-22T11:13:47.477Z,3.90
2023-01-22T11:16:21.098Z,4.18
2023-01-22T11:19:18.114Z,3.88
2023-01-22T11:21:55.452Z,5.30
2023-01-22T11:24:41.224Z,5.97
2023-01-22T11:27:41.158Z,4.95
2023-01-22T11:30:35.118Z,5.25
2023-01-22T11:33:34.416Z,5.55
2023-01-22T11:36:50.366Z,5.15
2023-01-22T11:39:32.676Z,2.35
2023-01-22T11:42:17.848Z,3.83
2023-01-22T11:44:55.999Z,4.20
2023-01-22T11:47:58.643Z,6.25
2023-01-22T11:50:43.998Z,5.33
2023-01-22T11:53:31.674Z,6.40
2023-01-22T11:56:25.405Z,7.72
2023-01-22T11:58:57.169Z,5.28
2023-01-22T12:01:35.764Z,4.32
2023-01-22T12:04:50.113Z,3.65
2023-01-22T12:07:46.000Z,5.57
2023-01-22T12:11:06.655Z,9.02
2023-01-22T12:14:27.194Z,4.28
2023-01-22T12:17:17.796Z,5.00
2023-01-22T12:20:04.728Z,3.35
2023-01-22T12:23:01.243Z,5.15
2023-01-22T12:25:47.183Z,4.97
2023-01-22T12:28:36.386Z,3.63
2023-01-22T12:31:23.227Z,3.75
2023-01-22T12:33:50.069Z,5.93
2023-01-22T12:36:23.915Z,4.72
2023-01-22T12:38:57.343Z,4.70
2023-01-22T12:41:48.584Z,4.20
2023-01-22T12:44:49.605Z,4.50
2023-01-22T12:47:25.858Z,4.75
2023-01-22T12:49:53.464Z,4.18
2023-01-22T12:52:37.845Z,3.00
2023-01-22T12:55:35.135Z,3.58
2023-01-22T12:58:03.551Z,3.33
2023-01-22T13:00:35.938Z,7.50
2023-01-22T13:03:31.065Z,4.20
2023-01-22T13:06:01.215Z,3.35
2023-01-22T13:08:43.564Z,2.45
2023-01-22T13:11:28.356Z,4.18
2023-01-22T13:14:27.127Z,2.90
2023-01-22T13:17:03.709Z,6.63
2023-01-22T13:19:42.563Z,6.88
2023-01-22T13:22:18.537Z,3.38
2023-01-22T13:24:57.746Z,4.75
2023-01-22T13:27:33.997Z,4.05
2023-01-22T13:30:31.209Z,4.78
2023-01-22T13:33:04.841Z,3.00
2023-01-22T13:35:31.666Z,4.85
2023-01-22T13:37:58.548Z,4.53
2023-01-22T13:40:28.702Z,4.68
2023-01-22T13:42:58.632Z,4.47
2023-01-22T13:45:30.517Z,3.45
2023-01-22T13:48:03.998Z,2.70
2023-01-22T13:50:32.179Z,4.03
2023-01-22T13:53:01.704Z,5.80
2023-01-22T13:55:30.599Z,7.53
2023-01-22T13:57:59.298Z,6.35
2023-01-22T14:00:35.273Z,4.60
2023-01-22T14:03:03.076Z,4.75
2023-01-22T14:05:34.664Z,3.78
2023-01-22T14:08:08.255Z,3.30
2023-01-22T14:10:35.228Z,2.83
2023-01-22T14:13:04.874Z,3.70
2023-01-22T14:15:32.952Z,5.82
2023-01-22T14:18:29.021Z,3.85
2023-01-22T14:20:55.782Z,4.57
2023-01-22T14:23:22.497Z,4.28
2023-01-22T14:25:52.680Z,4.70
2023-01-22T14:28:21.895Z,6.32
2023-01-22T14:30:49.404Z,4.68
2023-01-22T14:33:25.819Z,4.13
2023-01-22T14:35:53.730Z,6.75
2023-01-22T14:38:20.984Z,3.35
2023-01-22T14:40:47.913Z,4.60
2023-01-22T14:43:14.760Z,4.55
2023-01-22T14:45:44.257Z,5.03
2023-01-22T14:48:19.745Z,3.58
2023-01-22T14:50:47.832Z,5.45
2023-01-22T14:53:15.879Z,2.97
2023-01-22T14:55:43.287Z,5.30
2023-01-22T14:58:10.768Z,5.72
2023-01-22T15:00:39.033Z,5.75
2023-01-22T15:03:05.871Z,4.47
2023-01-22T15:05:35.336Z,5.90
2023-01-22T15:08:02.430Z,3.50
2023-01-22T15:10:29.266Z,5.35
2023-01-22T15:12:56.111Z,6.78
2023-01-22T15:15:27.020Z,5.60
2023-01-22T15:17:55.473Z,8.00
2023-01-22T15:20:22.609Z,4.63
2023-01-22T15:22:52.161Z,5.95
2023-01-22T15:25:19.182Z,6.88
2023-01-22T15:27:46.242Z,7.47
2023-01-22T15:30:14.273Z,5.70
2023-01-22T15:32:41.180Z,7.78
2023-01-22T15:35:08.502Z,6.22
2023-01-22T15:37:35.251Z,8.25
2023-01-22T15:40:02.471Z,5.47
2023-01-22T15:42:29.254Z,8.05
2023-01-22T15:44:56.065Z,6.85
2023-01-22T15:47:22.864Z,7.05
2023-01-22T15:49:49.630Z,8.40
2023-01-22T15:52:16.443Z,8.43
2023-01-22T15:54:43.187Z,10.20
2023-01-22T15:57:09.928Z,12.35
2023-01-22T15:59:38.934Z,10.23
2023-01-22T16:02:06.226Z,10.02
2023-01-22T16:04:33.005Z,8.10
2023-01-22T16:06:59.812Z,13.80
2023-01-22T16:09:26.631Z,6.47
2023-01-22T16:11:53.455Z,6.32
2023-01-22T16:14:20.343Z,7.28
2023-01-22T16:16:47.155Z,12.43
2023-01-22T16:19:14.022Z,10.65
2023-01-22T16:21:40.879Z,13.00
2023-01-22T16:24:07.934Z,8.85
2023-01-22T16:26:36.164Z,6.35
2023-01-22T16:29:05.644Z,7.07
2023-01-22T16:31:35.321Z,9.25
2023-01-22T16:34:18.389Z,7.15
2023-01-22T16:36:45.762Z,8.88
2023-01-22T16:39:22.633Z,6.30
2023-01-22T16:41:51.584Z,4.47
2023-01-22T16:44:24.594Z,6.55
2023-01-22T16:46:55.295Z,6.88
2023-01-22T16:49:31.368Z,8.15
2023-01-22T16:52:16.799Z,6.95
2023-01-22T16:54:49.409Z,5.75
2023-01-22T16:57:16.467Z,7.78
2023-01-22T16:59:43.271Z,5.32
2023-01-22T17:02:15.710Z,6.20
2023-01-22T17:04:42.597Z,8.98
2023-01-22T17:07:20.527Z,11.52
2023-01-22T17:09:54.587Z,5.93
2023-01-22T17:12:21.363Z,7.85
2023-01-22T17:14:52.689Z,5.68
2023-01-22T17:17:19.423Z,8.18
2023-01-22T17:19:46.240Z,8.55
2023-01-22T17:22:13.440Z,6.28
2023-01-22T17:24:41.529Z,8.95
2023-01-22T17:27:08.781Z,8.95
2023-01-22T17:29:36.371Z,12.70
2023-01-22T17:32:04.077Z,11.10
2023-01-22T17:34:31.100Z,9.23
2023-01-22T17:36:57.858Z,9.07
2023-01-22T17:39:24.861Z,7.53
2023-01-22T17:41:51.641Z,8.48
2023-01-22T17:44:18.461Z,8.00
2023-01-22T17:46:45.283Z,9.50
2023-01-22T17:49:12.072Z,7.22
2023-01-22T17:51:38.899Z,8.40
2023-01-22T17:54:06.334Z,15.75
2023-01-22T17:56:36.742Z,14.98
2023-01-22T17:59:06.421Z,11.23
2023-01-22T18:01:36.820Z,15.48
2023-01-22T18:04:08.317Z,14.23
2023-01-22T18:06:36.442Z,7.45
2023-01-22T18:09:05.732Z,9.65
2023-01-22T18:11:35.295Z,7.50
2023-01-22T18:14:09.793Z,13.55
2023-01-22T18:16:39.290Z,15.02
2023-01-22T18:19:07.456Z,9.30
2023-01-22T18:21:37.135Z,13.30
2023-01-22T18:24:06.647Z,8.65
2023-01-22T18:26:34.323Z,11.75
2023-01-22T18:29:01.891Z,8.35
2023-01-22T18:31:29.829Z,7.68
2023-01-22T18:34:02.323Z,10.23
2023-01-22T18:36:36.128Z,11.93
2023-01-22T18:39:12.620Z,16.58
2023-01-22T18:41:40.890Z,14.20
2023-01-22T18:44:10.247Z,14.00
2023-01-22T18:46:39.195Z,11.68
2023-01-22T18:49:12.792Z,11.23
2023-01-22T18:51:42.042Z,10.52
2023-01-22T18:54:09.129Z,9.60
2023-01-22T18:56:37.576Z,11.00
2023-01-22T18:59:05.822Z,8.75
2023-01-22T19:01:38.382Z,11.20
2023-01-22T19:06:37.912Z,7.32
2023-01-22T19:09:14.303Z,9.98
2023-01-22T19:11:44.461Z,7.93
2023-01-22T19:14:16.573Z,12.18
2023-01-22T19:16:48.623Z,8.02
2023-01-22T19:19:17.157Z,9.60
2023-01-22T19:21:47.713Z,11.27
2023-01-22T19:24:18.643Z,12.23
2023-01-22T19:26:46.826Z,14.52
2023-01-22T19:29:17.594Z,11.23
2023-01-22T19:31:48.379Z,11.98
2023-01-22T19:34:23.429Z,10.15
2023-01-22T19:37:02.963Z,13.98
2023-01-22T19:39:30.146Z,8.57
2023-01-22T19:41:58.173Z,10.77
2023-01-22T19:44:25.075Z,9.25
2023-01-22T19:46:51.891Z,9.15
2023-01-22T19:49:18.703Z,12.95
2023-01-22T19:51:45.508Z,13.90
2023-01-22T19:54:13.384Z,11.32
2023-01-22T19:56:45.507Z,9.43
2023-01-22T19:59:18.921Z,11.88
2023-01-22T20:01:48.654Z,11.82
2023-01-22T20:04:26.197Z,14.05
2023-01-22T20:07:02.588Z,11.38
2023-01-22T20:09:30.631Z,13.15
2023-01-22T20:11:58.338Z,8.35
2023-01-22T20:14:34.455Z,11.05
2023-01-22T20:17:02.784Z,17.73
2023-01-22T20:19:30.613Z,10.50
2023-01-22T20:21:57.499Z,12.27
2023-01-22T20:24:24.284Z,11.43
2023-01-22T20:26:54.875Z,14.52
2023-01-22T20:29:21.818Z,9.30
2023-01-22T20:31:52.589Z,14.68
2023-01-22T20:34:19.485Z,12.55
2023-01-22T20:36:46.445Z,13.82
2023-01-22T20:39:13.598Z,11.10
2023-01-22T20:41:40.343Z,9.75
2023-01-22T20:44:07.288Z,17.38
2023-01-22T20:46:36.123Z,22.75
2023-01-22T20:49:02.932Z,32.13
2023-01-22T20:51:30.107Z,19.52
2023-01-22T20:53:57.790Z,15.20
2023-01-22T20:56:30.459Z,13.48
2023-01-22T21:01:28.077Z,11.70
2023-01-22T21:03:57.091Z,7.47
2023-01-22T21:06:27.464Z,10.07
2023-01-22T21:08:56.394Z,10.85
2023-01-22T21:11:25.369Z,8.32
2023-01-22T21:13:53.427Z,11.02
2023-01-22T21:16:27.127Z,7.68
2023-01-22T21:19:00.645Z,10.43
2023-01-22T21:21:29.783Z,9.70
2023-01-22T21:23:58.031Z,11.98
2023-01-22T21:26:29.336Z,12.75
2023-01-22T21:29:03.292Z,9.45
2023-01-22T21:31:30.704Z,11.63
2023-01-22T21:34:03.062Z,8.52
2023-01-22T21:36:38.058Z,11.35
2023-01-22T21:39:08.919Z,12.35
2023-01-22T21:41:36.040Z,10.60
2023-01-22T21:44:21.473Z,7.07
2023-01-22T21:46:48.378Z,10.85
2023-01-22T21:49:20.042Z,10.05
2023-01-22T21:51:48.138Z,9.23
2023-01-22T21:54:19.273Z,10.55
2023-01-22T21:56:46.340Z,5.90
2023-01-22T21:59:13.450Z,11.15
2023-01-22T22:01:40.712Z,10.77
2023-01-22T22:04:09.317Z,9.40
2023-01-22T22:06:36.693Z,11.57
2023-01-22T22:09:07.586Z,7.65
2023-01-22T22:11:34.864Z,17.13
2023-01-22T22:14:01.814Z,11.77
2023-01-22T22:16:28.641Z,9.48
2023-01-22T22:18:56.833Z,7.82
2023-01-22T22:21:23.664Z,6.05
2023-01-22T22:23:50.712Z,6.03
2023-01-22T22:26:18.444Z,12.65
2023-01-22T22:28:45.458Z,6.00
2023-01-22T22:31:15.776Z,9.57
2023-01-22T22:33:45.520Z,7.72
2023-01-22T22:36:15.812Z,8.38
2023-01-22T22:38:43.201Z,13.52
2023-01-22T22:41:16.472Z,10.68
2023-01-22T22:43:46.837Z,7.32
2023-01-22T22:46:26.450Z,7.90
2023-01-22T22:48:55.294Z,10.30
2023-01-22T22:51:34.246Z,8.10
2023-01-22T22:54:07.716Z,6.95
2023-01-22T22:56:34.927Z,10.88
2023-01-22T22:59:02.566Z,9.55
2023-01-22T23:01:33.722Z,6.03
2023-01-22T23:04:01.481Z,9.27
2023-01-22T23:06:33.171Z,9.80
2023-01-22T23:09:01.262Z,8.57
2023-01-22T23:11:32.250Z,8.57
2023-01-22T23:14:01.618Z,6.82
2023-01-22T23:16:38.064Z,9.55
2023-01-22T23:19:14.397Z,7.55
2023-01-22T23:21:41.827Z,8.35
2023-01-22T23:24:14.089Z,10.30
2023-01-22T23:26:43.644Z,9.65
2023-01-22T23:29:15.033Z,9.35
2023-01-22T23:31:42.069Z,9.25
2023-01-22T23:34:14.309Z,9.80
2023-01-22T23:36:44.527Z,11.60
2023-01-22T23:39:14.043Z,7.05
2023-01-22T23:41:42.086Z,8.20
2023-01-22T23:44:09.138Z,10.05
2023-01-22T23:46:36.566Z,7.63
2023-01-22T23:49:04.563Z,7.13
2023-01-22T23:51:32.103Z,9.02
2023-01-22T23:53:59.275Z,8.27
2023-01-22T23:56:32.082Z,8.68
2023-01-22T23:58:59.861Z,6.60
